Huvudsida
METAR-TAF:

METAR-TAF

Flygplatser :

Bergens flygplats. Flesland

Bergen, Norge

latitud: 60-17N, longitud: 005-14E, höjd: 5 m

Aktuellt väderrapport

Denna rapport gjordes för 26 minuter sedan, klockan 12:20 UTC
Vind 7 kt från sydost
Temperatur 3°C
Fuktighet 52%
Tryck 1030 hPa
Sikt 10 km eller mer
Få moln på en höjd av 3000 ft

METAR: ENBR 121220Z 13007KT 9999 FEW030 03/M06 Q1030 NOSIG RMK WIND 1200FT 14012KT

Tid: 13:46 (12:46 UTC)

Väderprognos

Prognos gäller från 12 kl. 12 UTC till 13 kl. 12 UTC
Vind 5 kt från ost/sydost
Sikt 10 km eller mer
Inga moln under 1 500 m eller inga cumulonimbus

TAF: ENBR 1212/1312 12005KT CAVOK

Aktuella väderrapporter och prognoser från 4000 flygplatser (METAR- och TAF-rapporter).

De tillgängliga stationerna syns som gula och röda prickar på kartan.

För musen över prickarna för att se namnen på stationerna.

Klicka sedan för att få väderrapporter och prognoser.

För att ändra kartan: Klicka på de gröna knapparna med ett svart kors på för att zooma in; den gröna knappen med ett streck på för att zooma ut; eller på de gröna pilarna för angränsande kartor.


METAR-TAF: